createdAt,value
2018-05-16T00:01:47.154Z,16.50
2018-05-16T00:04:13.123Z,15.20
2018-05-16T00:06:39.103Z,17.57
2018-05-16T00:09:05.318Z,18.63
2018-05-16T00:11:31.347Z,16.43
2018-05-16T00:13:58.227Z,16.57
2018-05-16T00:16:24.227Z,17.57
2018-05-16T00:18:51.375Z,17.40
2018-05-16T00:21:17.347Z,18.13
2018-05-16T00:23:43.357Z,17.87
2018-05-16T00:26:10.077Z,19.40
2018-05-16T00:28:36.016Z,17.90
2018-05-16T00:31:01.997Z,18.10
2018-05-16T00:33:28.827Z,19.50
2018-05-16T00:35:54.806Z,19.90
2018-05-16T00:38:20.751Z,20.47
2018-05-16T00:40:46.783Z,20.33
2018-05-16T00:43:12.735Z,19.57
2018-05-16T00:45:38.691Z,19.10
2018-05-16T00:48:04.671Z,19.03
2018-05-16T00:50:30.640Z,17.80
2018-05-16T00:52:56.635Z,17.37
2018-05-16T00:55:23.319Z,20.40
2018-05-16T00:57:49.295Z,21.83
2018-05-16T01:00:15.250Z,19.10
2018-05-16T01:02:42.000Z,18.90
2018-05-16T01:05:07.955Z,21.53
2018-05-16T01:07:34.663Z,24.27
2018-05-16T01:10:00.611Z,21.87
2018-05-16T01:12:26.611Z,23.13
2018-05-16T01:14:52.593Z,24.50
2018-05-16T01:17:18.542Z,24.93
2018-05-16T01:19:45.278Z,25.00
2018-05-16T01:22:12.043Z,23.40
2018-05-16T01:24:38.742Z,25.10
2018-05-16T01:27:04.691Z,25.00
2018-05-16T01:29:30.712Z,27.20
2018-05-16T01:31:56.747Z,25.20
2018-05-16T01:34:22.733Z,23.00
2018-05-16T01:36:48.682Z,24.80
2018-05-16T01:39:15.382Z,24.50
2018-05-16T01:41:41.426Z,26.23
2018-05-16T01:44:08.096Z,24.87
2018-05-16T01:46:34.123Z,23.60
2018-05-16T01:49:12.509Z,25.17
2018-05-16T01:51:38.481Z,22.90
2018-05-16T01:54:04.488Z,24.67
2018-05-16T01:56:30.540Z,23.80
2018-05-16T01:58:56.548Z,25.73
2018-05-16T02:01:23.256Z,24.40
2018-05-16T02:03:49.252Z,22.77
2018-05-16T02:06:15.222Z,24.07
2018-05-16T02:08:41.223Z,24.40
2018-05-16T02:11:07.208Z,23.87
2018-05-16T02:13:33.199Z,22.63
2018-05-16T02:15:59.159Z,26.03
2018-05-16T02:18:25.146Z,25.03
2018-05-16T02:20:51.888Z,24.73
2018-05-16T02:23:18.583Z,24.37
2018-05-16T02:25:44.532Z,24.60
2018-05-16T02:28:10.641Z,24.93
2018-05-16T02:30:36.624Z,23.90
2018-05-16T02:33:02.636Z,24.87
2018-05-16T02:35:28.642Z,24.20
2018-05-16T02:37:55.394Z,24.30
2018-05-16T02:40:22.103Z,24.83
2018-05-16T02:42:48.483Z,22.53
2018-05-16T02:45:15.360Z,24.50
2018-05-16T02:47:41.474Z,23.40
2018-05-16T02:50:08.156Z,24.23
2018-05-16T02:52:34.161Z,24.10
2018-05-16T02:55:01.137Z,22.03
2018-05-16T02:57:27.131Z,22.13
2018-05-16T02:59:53.132Z,23.40
2018-05-16T03:02:19.161Z,25.33
2018-05-16T03:04:45.126Z,24.90
2018-05-16T03:07:11.108Z,27.83
2018-05-16T03:09:37.812Z,28.20
2018-05-16T03:12:03.809Z,28.43
2018-05-16T03:14:30.568Z,25.70
2018-05-16T03:16:56.553Z,25.93
2018-05-16T03:19:22.529Z,25.23
2018-05-16T03:21:49.256Z,23.77
2018-05-16T03:24:15.219Z,21.07
2018-05-16T03:26:41.955Z,21.77
2018-05-16T03:29:07.909Z,22.40
2018-05-16T03:31:35.206Z,21.93
2018-05-16T03:34:01.200Z,21.90
2018-05-16T03:36:27.916Z,21.90
2018-05-16T03:38:53.904Z,21.10
2018-05-16T03:41:20.608Z,21.27
2018-05-16T03:43:46.609Z,21.20
2018-05-16T03:46:12.574Z,20.83
2018-05-16T03:48:38.542Z,21.30
2018-05-16T03:51:04.520Z,24.23
2018-05-16T03:53:30.644Z,22.00
2018-05-16T03:55:56.677Z,23.70
2018-05-16T03:58:35.789Z,24.30
2018-05-16T04:01:14.126Z,24.50
2018-05-16T04:03:53.488Z,23.53
2018-05-16T04:06:20.217Z,24.40
2018-05-16T04:08:46.244Z,25.80
2018-05-16T04:11:12.208Z,25.53
2018-05-16T04:13:38.237Z,23.80
2018-05-16T04:16:04.163Z,23.87
2018-05-16T04:18:30.267Z,24.10
2018-05-16T04:20:56.225Z,23.67
2018-05-16T04:23:22.228Z,24.33
2018-05-16T04:25:48.200Z,23.80
2018-05-16T04:28:14.180Z,24.50
2018-05-16T04:30:40.152Z,24.70
2018-05-16T04:33:06.140Z,23.77
2018-05-16T04:35:32.950Z,25.40
2018-05-16T04:37:59.653Z,21.67
2018-05-16T04:40:25.620Z,22.30
2018-05-16T04:42:51.618Z,20.20
2018-05-16T04:45:18.323Z,17.57
2018-05-16T04:47:44.291Z,18.03
2018-05-16T04:50:10.285Z,16.80
2018-05-16T04:52:36.236Z,16.00
2018-05-16T04:55:02.233Z,17.03
2018-05-16T04:57:28.252Z,16.17
2018-05-16T04:59:54.998Z,17.50
2018-05-16T05:02:21.709Z,18.27
2018-05-16T05:04:47.712Z,17.30
2018-05-16T05:09:46.532Z,17.43
2018-05-16T05:12:13.240Z,15.50
2018-05-16T05:14:39.260Z,16.77
2018-05-16T05:17:05.268Z,17.20
2018-05-16T05:19:31.264Z,17.23
2018-05-16T05:21:57.228Z,17.10
2018-05-16T05:24:23.944Z,17.50
2018-05-16T05:26:49.940Z,18.80
2018-05-16T05:29:15.925Z,19.00
2018-05-16T05:31:41.884Z,19.70
2018-05-16T05:34:08.608Z,22.50
2018-05-16T05:36:34.571Z,22.17
2018-05-16T05:39:01.316Z,21.83
2018-05-16T05:41:28.080Z,18.30
2018-05-16T05:43:54.779Z,16.40
2018-05-16T05:46:20.732Z,18.73
2018-05-16T05:48:46.747Z,19.03
2018-05-16T05:51:12.688Z,18.47
2018-05-16T05:53:38.676Z,18.40
2018-05-16T05:56:05.376Z,18.23
2018-05-16T05:58:31.441Z,17.70
2018-05-16T06:00:57.480Z,20.27
2018-05-16T06:03:23.444Z,18.23
2018-05-16T06:05:50.196Z,20.80
2018-05-16T06:08:16.904Z,20.73
2018-05-16T06:10:42.897Z,21.73
2018-05-16T06:13:08.852Z,21.53
2018-05-16T06:15:34.871Z,24.03
2018-05-16T06:18:00.911Z,22.90
2018-05-16T06:20:32.992Z,22.90
2018-05-16T06:22:59.013Z,23.43
2018-05-16T06:25:25.728Z,24.23
2018-05-16T06:27:52.444Z,24.97
2018-05-16T06:30:18.447Z,25.73
2018-05-16T06:32:45.228Z,27.17
2018-05-16T06:35:11.928Z,26.13
2018-05-16T06:37:37.916Z,28.70
2018-05-16T06:40:04.880Z,29.93
2018-05-16T06:42:30.862Z,29.30
2018-05-16T06:44:56.820Z,28.93
2018-05-16T06:47:23.561Z,31.87
2018-05-16T06:49:49.540Z,29.10
2018-05-16T06:52:15.530Z,31.17
2018-05-16T06:54:41.516Z,35.60
2018-05-16T06:57:07.511Z,34.23
2018-05-16T06:59:33.517Z,33.97
2018-05-16T07:01:59.540Z,36.20
2018-05-16T07:04:25.537Z,35.90
2018-05-16T07:06:58.629Z,33.33
2018-05-16T07:09:25.380Z,35.23
2018-05-16T07:11:52.091Z,35.03
2018-05-16T07:14:18.120Z,34.80
2018-05-16T07:16:44.109Z,32.27
2018-05-16T07:19:10.849Z,30.60
2018-05-16T07:21:36.843Z,31.43
2018-05-16T07:24:02.868Z,29.73
2018-05-16T07:26:28.860Z,30.87
2018-05-16T07:28:54.809Z,31.60
2018-05-16T07:31:21.537Z,32.77
2018-05-16T07:33:47.493Z,34.57
2018-05-16T07:36:14.231Z,31.97
2018-05-16T07:38:40.188Z,32.30
2018-05-16T07:41:06.980Z,34.03
2018-05-16T07:43:32.949Z,30.43
2018-05-16T07:45:58.906Z,33.97
2018-05-16T07:48:25.650Z,33.50
2018-05-16T07:50:52.707Z,33.20
2018-05-16T07:53:18.695Z,33.80
2018-05-16T07:55:44.661Z,33.13
2018-05-16T07:58:10.648Z,35.20
2018-05-16T08:00:36.635Z,34.47
2018-05-16T08:03:02.649Z,36.73
2018-05-16T08:05:28.631Z,32.70
2018-05-16T08:07:54.589Z,36.23
2018-05-16T08:10:20.586Z,35.67
2018-05-16T08:12:46.532Z,35.00
2018-05-16T08:15:12.522Z,36.03
2018-05-16T08:17:38.492Z,36.20
2018-05-16T08:20:04.510Z,38.57
2018-05-16T08:22:30.471Z,35.90
2018-05-16T08:24:56.456Z,36.17
2018-05-16T08:27:22.396Z,34.47
2018-05-16T08:29:55.346Z,34.47
2018-05-16T08:32:21.325Z,36.10
2018-05-16T08:34:47.312Z,31.63
2018-05-16T08:37:13.272Z,31.80
2018-05-16T08:39:40.009Z,33.07
2018-05-16T08:42:06.040Z,31.03
2018-05-16T08:44:31.997Z,31.20
2018-05-16T08:46:58.688Z,30.20
2018-05-16T08:49:24.694Z,32.40
2018-05-16T08:51:51.444Z,30.53
2018-05-16T08:54:18.216Z,31.53
2018-05-16T08:56:44.184Z,30.30
2018-05-16T08:59:10.180Z,29.23
2018-05-16T09:01:36.886Z,29.33
2018-05-16T09:04:02.873Z,27.97
2018-05-16T09:06:28.865Z,27.07
2018-05-16T09:08:54.860Z,27.00
2018-05-16T09:11:20.847Z,27.70
2018-05-16T09:13:47.540Z,28.97
2018-05-16T09:16:13.526Z,28.67
2018-05-16T09:18:39.560Z,27.23
2018-05-16T09:21:05.584Z,27.13
2018-05-16T09:23:31.535Z,29.27
2018-05-16T09:25:57.520Z,30.03
2018-05-16T09:28:23.535Z,30.60
2018-05-16T09:30:50.848Z,26.00
2018-05-16T09:33:16.818Z,28.37
2018-05-16T09:35:42.819Z,29.83
2018-05-16T09:38:08.812Z,29.90
2018-05-16T09:40:35.536Z,33.43
2018-05-16T09:43:01.529Z,30.40
2018-05-16T09:45:27.510Z,32.50
2018-05-16T09:47:54.341Z,29.13
2018-05-16T09:50:20.568Z,32.63
2018-05-16T09:52:46.553Z,32.47
2018-05-16T09:55:12.521Z,33.63
2018-05-16T09:57:38.475Z,34.30
2018-05-16T10:00:04.488Z,34.67
2018-05-16T10:02:31.200Z,33.20
2018-05-16T10:04:57.198Z,33.03
2018-05-16T10:07:23.533Z,33.47
2018-05-16T10:09:50.442Z,35.03
2018-05-16T10:12:17.525Z,35.63
2018-05-16T10:14:43.482Z,34.10
2018-05-16T10:17:09.463Z,34.17
2018-05-16T10:19:35.644Z,37.07
2018-05-16T10:22:02.349Z,37.33
2018-05-16T10:24:28.341Z,35.60
2018-05-16T10:26:55.081Z,37.00
2018-05-16T10:29:21.862Z,34.83
2018-05-16T10:31:48.748Z,37.93
2018-05-16T10:34:14.728Z,36.20
2018-05-16T10:36:41.464Z,37.67
2018-05-16T10:39:07.481Z,37.63
2018-05-16T10:41:33.489Z,37.10
2018-05-16T10:43:59.476Z,37.30
2018-05-16T10:46:25.429Z,35.07
2018-05-16T10:48:52.185Z,37.70
2018-05-16T10:51:18.888Z,38.37
2018-05-16T10:53:44.849Z,35.90
2018-05-16T10:56:10.860Z,36.70
2018-05-16T10:58:36.830Z,36.90
2018-05-16T11:01:03.579Z,38.33
2018-05-16T11:03:30.303Z,41.57
2018-05-16T11:05:56.297Z,39.07
2018-05-16T11:08:23.052Z,39.33
2018-05-16T11:10:49.753Z,36.40
2018-05-16T11:13:15.745Z,38.40
2018-05-16T11:15:41.705Z,41.60
2018-05-16T11:18:07.725Z,40.80
2018-05-16T11:20:33.730Z,40.67
2018-05-16T11:23:00.465Z,38.80
2018-05-16T11:25:26.453Z,38.90
2018-05-16T11:27:52.503Z,38.87
2018-05-16T11:30:18.543Z,36.50
2018-05-16T11:32:51.591Z,36.27
2018-05-16T11:35:17.575Z,39.50
2018-05-16T11:37:43.565Z,38.77
2018-05-16T11:40:09.552Z,40.07
2018-05-16T11:42:35.576Z,37.83
2018-05-16T11:45:01.530Z,41.33
2018-05-16T11:47:27.540Z,39.73
2018-05-16T11:49:53.532Z,40.03
2018-05-16T11:52:19.481Z,39.30
2018-05-16T11:54:45.472Z,40.23
2018-05-16T11:57:11.425Z,39.10
2018-05-16T11:59:37.432Z,39.60
2018-05-16T12:02:03.388Z,36.90
2018-05-16T12:04:29.431Z,36.87
2018-05-16T12:06:55.403Z,36.80
2018-05-16T12:09:21.419Z,33.73
2018-05-16T12:11:47.376Z,33.33
2018-05-16T12:14:13.333Z,35.60
2018-05-16T12:16:40.056Z,35.33
2018-05-16T12:19:06.100Z,35.80
2018-05-16T12:21:33.588Z,37.10
2018-05-16T12:23:59.493Z,36.50
2018-05-16T12:26:26.169Z,33.73
2018-05-16T12:28:52.989Z,32.60
2018-05-16T12:31:18.932Z,35.37
2018-05-16T12:33:44.920Z,30.23
2018-05-16T12:36:10.880Z,27.87
2018-05-16T12:38:36.937Z,30.80
2018-05-16T12:41:03.540Z,30.20
2018-05-16T12:43:30.321Z,29.50
2018-05-16T12:45:56.308Z,32.20
2018-05-16T12:48:23.046Z,30.97
2018-05-16T12:50:49.074Z,29.10
2018-05-16T12:53:15.040Z,30.60
2018-05-16T12:55:41.792Z,30.30
2018-05-16T12:58:07.763Z,31.17
2018-05-16T13:00:33.761Z,28.50
2018-05-16T13:03:00.466Z,33.07
2018-05-16T13:05:26.488Z,32.90
2018-05-16T13:07:52.460Z,28.53
2018-05-16T13:10:18.455Z,26.93
2018-05-16T13:12:44.429Z,28.27
2018-05-16T13:15:10.400Z,29.17
2018-05-16T13:17:37.259Z,27.00
2018-05-16T13:20:03.164Z,28.40
2018-05-16T13:22:29.156Z,27.23
2018-05-16T13:24:55.160Z,27.23
2018-05-16T13:27:21.932Z,26.90
2018-05-16T13:29:47.912Z,24.17
2018-05-16T13:32:13.896Z,22.93
2018-05-16T13:34:39.868Z,24.47
2018-05-16T13:37:12.044Z,24.53
2018-05-16T13:39:38.010Z,26.33
2018-05-16T13:42:04.022Z,22.90
2018-05-16T13:44:30.053Z,21.23
2018-05-16T13:46:56.009Z,23.63
2018-05-16T13:49:22.917Z,20.10
2018-05-16T13:51:49.657Z,22.50
2018-05-16T13:54:17.292Z,22.27
2018-05-16T13:56:43.272Z,22.10
2018-05-16T13:59:09.996Z,21.63
2018-05-16T14:01:35.970Z,21.07
2018-05-16T14:04:01.970Z,22.53
2018-05-16T14:06:28.004Z,21.40
2018-05-16T14:08:53.975Z,20.50
2018-05-16T14:11:20.696Z,20.60
2018-05-16T14:13:46.679Z,19.70
2018-05-16T14:16:12.652Z,18.63
2018-05-16T14:18:38.616Z,19.10
2018-05-16T14:21:04.625Z,19.90
2018-05-16T14:23:30.612Z,20.47
2018-05-16T14:25:56.569Z,22.23
2018-05-16T14:28:22.576Z,20.37
2018-05-16T14:30:49.291Z,20.73
2018-05-16T14:33:15.352Z,21.77
2018-05-16T14:35:42.112Z,24.00
2018-05-16T14:38:08.075Z,22.63
2018-05-16T14:40:34.132Z,24.10
2018-05-16T14:43:00.280Z,23.50
2018-05-16T14:45:26.256Z,23.43
2018-05-16T14:47:52.227Z,23.93
2018-05-16T14:50:18.737Z,21.00
2018-05-16T14:52:44.924Z,18.10
2018-05-16T14:55:10.912Z,16.90
2018-05-16T14:57:36.879Z,17.33
2018-05-16T15:00:02.876Z,19.67
2018-05-16T15:02:29.910Z,20.57
2018-05-16T15:04:55.864Z,20.20
2018-05-16T15:07:21.843Z,21.93
2018-05-16T15:09:48.576Z,20.10
2018-05-16T15:12:14.564Z,18.10
2018-05-16T15:14:40.579Z,16.70
2018-05-16T15:17:07.664Z,14.33
2018-05-16T15:19:33.677Z,14.27
2018-05-16T15:21:59.665Z,11.47
2018-05-16T15:24:25.647Z,10.00
2018-05-16T15:26:52.344Z,9.03
2018-05-16T15:29:18.338Z,9.60
2018-05-16T15:31:44.335Z,9.93
2018-05-16T15:34:10.334Z,9.07
2018-05-16T15:36:36.282Z,8.70
2018-05-16T15:39:02.293Z,9.17
2018-05-16T15:41:28.272Z,8.53
2018-05-16T15:43:54.277Z,9.00
2018-05-16T15:46:21.744Z,8.70
2018-05-16T15:48:47.779Z,8.47
2018-05-16T15:51:13.727Z,9.07
2018-05-16T15:53:39.716Z,9.00
2018-05-16T15:56:06.444Z,9.33
2018-05-16T15:58:32.469Z,9.00
2018-05-16T16:00:58.452Z,8.43
2018-05-16T16:03:25.184Z,7.70
2018-05-16T16:05:51.164Z,8.10
2018-05-16T16:08:17.260Z,8.10
2018-05-16T16:10:43.177Z,7.60
2018-05-16T16:13:09.132Z,8.87
2018-05-16T16:15:35.121Z,7.63
2018-05-16T16:18:01.121Z,7.90
2018-05-16T16:20:27.824Z,7.93
2018-05-16T16:22:53.820Z,7.27
2018-05-16T16:25:19.817Z,7.03
2018-05-16T16:27:45.775Z,8.60
2018-05-16T16:30:11.742Z,6.77
2018-05-16T16:32:37.801Z,8.00
2018-05-16T16:35:03.760Z,7.30
2018-05-16T16:37:29.724Z,7.40
2018-05-16T16:39:55.734Z,7.90
2018-05-16T16:42:21.697Z,8.30
2018-05-16T16:44:48.454Z,8.23
2018-05-16T16:47:14.427Z,7.90
2018-05-16T16:49:40.482Z,10.00
2018-05-16T16:52:06.560Z,8.60
2018-05-16T16:54:33.786Z,8.30
2018-05-16T16:56:59.869Z,9.00
2018-05-16T16:59:26.620Z,7.27
2018-05-16T17:01:54.050Z,8.17
2018-05-16T17:04:20.036Z,8.60
2018-05-16T17:06:46.004Z,8.80
2018-05-16T17:09:12.009Z,7.60
2018-05-16T17:11:38.026Z,8.47
2018-05-16T17:14:04.776Z,9.07
2018-05-16T17:16:30.754Z,10.23
2018-05-16T17:18:56.727Z,8.80
2018-05-16T17:21:22.720Z,9.00
2018-05-16T17:23:48.668Z,7.80
2018-05-16T17:26:14.672Z,8.70
2018-05-16T17:28:41.361Z,8.67
2018-05-16T17:31:07.420Z,9.40
2018-05-16T17:33:33.413Z,16.90
2018-05-16T17:35:59.367Z,10.03
2018-05-16T17:38:25.352Z,8.63
2018-05-16T17:40:52.052Z,7.87
2018-05-16T17:43:18.021Z,8.83
2018-05-16T17:45:43.993Z,8.70
2018-05-16T17:48:10.749Z,9.10
2018-05-16T17:50:37.713Z,8.40
2018-05-16T17:53:04.397Z,8.70
2018-05-16T17:55:30.420Z,9.50
2018-05-16T17:57:56.396Z,9.37
2018-05-16T18:00:22.473Z,9.97
2018-05-16T18:02:48.472Z,9.50
2018-05-16T18:05:14.430Z,8.93
2018-05-16T18:07:41.981Z,8.90
2018-05-16T18:10:07.951Z,9.03
2018-05-16T18:12:34.712Z,9.47
2018-05-16T18:15:18.945Z,8.77
2018-05-16T18:17:51.867Z,9.30
2018-05-16T18:20:18.596Z,8.80
2018-05-16T18:22:44.568Z,9.00
2018-05-16T18:25:10.576Z,8.63
2018-05-16T18:27:37.353Z,8.90
2018-05-16T18:30:03.314Z,8.50
2018-05-16T18:32:29.275Z,9.23
2018-05-16T18:34:55.293Z,9.00
2018-05-16T18:37:21.297Z,9.83
2018-05-16T18:39:48.038Z,8.37
2018-05-16T18:42:13.992Z,7.97
2018-05-16T18:44:39.997Z,8.53
2018-05-16T18:47:06.039Z,8.63
2018-05-16T18:49:32.791Z,9.13
2018-05-16T18:51:58.805Z,9.27
2018-05-16T18:54:24.844Z,9.13
2018-05-16T18:56:50.861Z,9.50
2018-05-16T18:59:16.851Z,9.37
2018-05-16T19:01:43.553Z,10.33
2018-05-16T19:04:09.537Z,11.20
2018-05-16T19:06:36.300Z,11.97
2018-05-16T19:09:03.880Z,12.33
2018-05-16T19:11:29.840Z,13.87
2018-05-16T19:13:55.832Z,13.73
2018-05-16T19:16:22.627Z,14.20
2018-05-16T19:18:48.575Z,14.50
2018-05-16T19:21:14.556Z,14.03
2018-05-16T19:23:41.249Z,14.10
2018-05-16T19:26:07.229Z,13.30
2018-05-16T19:28:33.175Z,12.97
2018-05-16T19:30:59.899Z,12.80
2018-05-16T19:33:25.863Z,12.30
2018-05-16T19:35:52.606Z,10.60
2018-05-16T19:38:18.588Z,11.40
2018-05-16T19:40:44.541Z,11.33
2018-05-16T19:43:10.533Z,12.00
2018-05-16T19:45:37.224Z,11.53
2018-05-16T19:48:03.179Z,12.50
2018-05-16T19:50:29.720Z,14.20
2018-05-16T19:52:55.738Z,12.40
2018-05-16T19:55:21.684Z,12.83
2018-05-16T19:57:47.700Z,13.93
2018-05-16T20:00:13.696Z,14.20
2018-05-16T20:02:39.646Z,14.30
2018-05-16T20:05:06.397Z,13.90
2018-05-16T20:07:33.153Z,16.07
2018-05-16T20:09:59.921Z,16.33
2018-05-16T20:12:26.664Z,17.40
2018-05-16T20:14:53.557Z,19.47
2018-05-16T20:17:19.375Z,18.30
2018-05-16T20:19:45.328Z,19.10
2018-05-16T20:22:11.327Z,18.23
2018-05-16T20:24:38.064Z,18.43
2018-05-16T20:27:04.063Z,20.00
2018-05-16T20:29:30.076Z,19.77
2018-05-16T20:31:56.792Z,18.57
2018-05-16T20:34:23.504Z,20.47
2018-05-16T20:36:49.501Z,20.50
2018-05-16T20:39:16.225Z,20.43
2018-05-16T20:41:42.215Z,22.00
2018-05-16T20:44:08.204Z,22.20
2018-05-16T20:46:34.159Z,21.37
2018-05-16T20:49:00.885Z,22.73
2018-05-16T20:51:26.889Z,21.40
2018-05-16T20:53:52.860Z,19.80
2018-05-16T20:56:18.820Z,20.97
2018-05-16T20:58:45.624Z,20.60
2018-05-16T21:01:12.345Z,20.93
2018-05-16T21:03:45.460Z,21.80
2018-05-16T21:06:11.562Z,20.93
2018-05-16T21:08:38.415Z,20.17
2018-05-16T21:11:05.194Z,21.10
2018-05-16T21:13:31.145Z,21.37
2018-05-16T21:15:57.103Z,19.83
2018-05-16T21:18:23.060Z,20.50
2018-05-16T21:20:49.047Z,18.90
2018-05-16T21:23:15.042Z,20.87
2018-05-16T21:25:41.055Z,18.87
2018-05-16T21:28:07.028Z,20.13
2018-05-16T21:30:33.720Z,19.13
2018-05-16T21:32:59.736Z,18.87
2018-05-16T21:35:25.773Z,20.20
2018-05-16T21:37:51.730Z,19.87
2018-05-16T21:40:17.731Z,18.60
2018-05-16T21:42:44.433Z,18.20
2018-05-16T21:45:10.424Z,19.00
2018-05-16T21:47:37.163Z,19.67
2018-05-16T21:50:03.884Z,18.57
2018-05-16T21:55:01.846Z,20.13
2018-05-16T21:57:27.848Z,18.27
2018-05-16T21:59:53.828Z,18.60
2018-05-16T22:02:20.197Z,18.13
2018-05-16T22:04:47.181Z,19.33
2018-05-16T22:07:13.165Z,19.23
2018-05-16T22:09:39.465Z,19.50
2018-05-16T22:12:05.954Z,18.80
2018-05-16T22:14:31.940Z,19.27
2018-05-16T22:16:57.950Z,20.23
2018-05-16T22:19:23.949Z,20.03
2018-05-16T22:21:49.916Z,19.10
2018-05-16T22:24:15.868Z,19.37
2018-05-16T22:26:41.878Z,20.40
2018-05-16T22:29:07.860Z,20.83
2018-05-16T22:31:40.114Z,20.70
2018-05-16T22:34:12.300Z,19.40
2018-05-16T22:36:45.532Z,21.57
2018-05-16T22:39:17.664Z,20.17
2018-05-16T22:41:50.406Z,19.53
2018-05-16T22:44:27.332Z,21.30
2018-05-16T22:46:54.053Z,19.07
2018-05-16T22:49:20.008Z,19.23
2018-05-16T22:51:46.024Z,20.93
2018-05-16T22:54:11.997Z,19.90
2018-05-16T22:56:38.073Z,21.23
2018-05-16T22:59:04.097Z,19.40
2018-05-16T23:01:30.048Z,18.73
2018-05-16T23:03:56.021Z,19.00
2018-05-16T23:06:22.013Z,18.80
2018-05-16T23:08:47.964Z,20.53
2018-05-16T23:11:13.945Z,20.40
2018-05-16T23:13:40.668Z,18.57
2018-05-16T23:16:07.275Z,20.13
2018-05-16T23:18:33.207Z,19.03
2018-05-16T23:20:59.167Z,19.40
2018-05-16T23:23:25.116Z,18.93
2018-05-16T23:25:52.539Z,19.83
2018-05-16T23:28:19.301Z,20.40
2018-05-16T23:33:18.005Z,19.90
2018-05-16T23:35:44.736Z,19.80
2018-05-16T23:38:10.681Z,20.03
2018-05-16T23:40:36.672Z,20.40
2018-05-16T23:43:02.624Z,20.80
2018-05-16T23:45:28.632Z,20.37
2018-05-16T23:47:54.592Z,23.03
2018-05-16T23:50:21.188Z,23.13
2018-05-16T23:52:47.948Z,23.90
2018-05-16T23:55:14.648Z,22.27
2018-05-16T23:57:40.603Z,22.63
